Time;durP1;ratioP1;P1;durP2;ratioP2;P2;SDS_P1;SDS_P2;PMS_P1;PMS_P2;Temp;Humidity;BMP_temperature;BMP_pressure;BME280_temperature;BME280_humidity;BME280_pressure;Samples;Min_cycle;Max_cycle;Signal;HPM_P1;HPM_P2
2022/02/07 00:00:20;;;;;;;43.78;28.63;;;;;;;3.90;79.43;97994.41;4999082;28;20063;-64
2022/02/07 00:05:31;;;;;;;45.88;29.20;;;;;;;3.68;78.77;97954.91;5030766;28;20191;-67
2022/02/07 00:07:57;;;;;;;45.20;28.60;;;;;;;4.09;78.70;97986.94;5031529;28;20046;-64
2022/02/07 00:10:23;;;;;;;44.58;29.20;;;;;;;4.03;78.71;97974.53;5024650;28;20538;-63
2022/02/07 00:12:49;;;;;;;45.63;28.70;;;;;;;3.85;79.28;97971.63;5038569;28;20029;-63
2022/02/07 00:15:16;;;;;;;44.50;28.58;;;;;;;3.89;79.26;97992.78;5025669;28;20135;-63
2022/02/07 00:17:41;;;;;;;46.47;29.08;;;;;;;3.68;79.05;97936.09;5023382;28;20032;-63
2022/02/07 00:20:13;;;;;;;45.65;29.70;;;;;;;3.92;78.72;97965.06;5012507;28;20225;-63
2022/02/07 00:22:39;;;;;;;45.83;29.73;;;;;;;3.71;79.29;97966.72;5012217;28;20021;-63
2022/02/07 00:25:05;;;;;;;48.13;30.48;;;;;;;3.59;80.15;97983.88;5023552;28;20069;-63
2022/02/07 00:27:30;;;;;;;51.28;33.28;;;;;;;3.58;79.47;97972.81;5037373;28;20134;-64
2022/02/07 00:29:56;;;;;;;48.80;30.80;;;;;;;3.51;80.31;97963.09;5018907;28;20041;-63
2022/02/07 00:32:21;;;;;;;45.90;29.15;;;;;;;3.67;79.60;97948.16;5029811;28;20029;-63
2022/02/07 00:34:47;;;;;;;49.70;31.20;;;;;;;3.84;79.55;97939.94;5036274;28;20048;-63
2022/02/07 00:37:12;;;;;;;50.60;32.20;;;;;;;3.79;79.33;97949.75;5032639;28;20052;-64
2022/02/07 00:39:45;;;;;;;48.90;31.52;;;;;;;3.81;78.69;97960.75;5020401;28;20124;-63
2022/02/07 00:42:21;;;;;;;47.42;29.65;;;;;;;3.57;80.74;97945.44;4980942;28;20431;-64
2022/02/07 00:44:48;;;;;;;45.88;29.63;;;;;;;3.61;80.62;97964.88;5029971;28;20044;-63
2022/02/07 00:47:15;;;;;;;47.65;30.35;;;;;;;3.57;82.24;97954.91;5037259;28;20490;-66
2022/02/07 00:49:41;;;;;;;40.50;27.27;;;;;;;3.56;82.79;97853.84;5033236;28;20419;-63
2022/02/07 00:52:07;;;;;;;46.67;28.70;;;;;;;3.62;83.18;97915.06;5029849;28;20044;-63
2022/02/07 00:54:32;;;;;;;44.72;28.67;;;;;;;3.68;84.13;97947.19;5016861;28;20025;-67
2022/02/07 00:56:58;;;;;;;42.33;28.13;;;;;;;3.62;84.38;97919.41;5035552;28;20029;-66
2022/02/07 00:59:23;;;;;;;41.60;27.38;;;;;;;3.68;82.96;97851.25;5043890;28;20507;-65
2022/02/07 01:01:48;;;;;;;42.40;26.55;;;;;;;3.82;82.29;97882.66;4989179;28;20029;-63
2022/02/07 01:04:14;;;;;;;43.88;28.00;;;;;;;3.92;82.88;97917.94;5042315;28;20451;-64
2022/02/07 01:06:39;;;;;;;42.60;27.88;;;;;;;3.93;83.16;97884.41;5043460;28;20037;-63
2022/02/07 01:11:54;;;;;;;42.08;27.65;;;;;;;3.78;82.87;97855.56;5038677;28;20512;-64
2022/02/07 01:56:40;;;;;;;43.53;27.95;;;;;;;3.90;82.83;97730.31;5041986;28;20041;-64
2022/02/07 01:59:06;;;;;;;41.78;26.33;;;;;;;4.15;82.28;97754.88;5029993;28;20128;-65
2022/02/07 02:01:33;;;;;;;41.45;25.73;;;;;;;4.28;82.42;97834.47;4993097;28;21720;-64
2022/02/07 02:03:59;;;;;;;46.67;26.75;;;;;;;4.27;82.53;97861.16;5041955;28;20743;-63
2022/02/07 02:06:25;;;;;;;45.00;28.65;;;;;;;4.11;82.21;97657.50;5038518;28;20136;-64
2022/02/07 02:08:51;;;;;;;36.97;20.83;;;;;;;4.26;78.70;97674.22;5037458;28;20029;-64
2022/02/07 02:11:16;;;;;;;38.83;25.85;;;;;;;4.26;83.07;97794.34;5040999;28;20029;-63
2022/02/07 02:16:40;;;;;;;42.70;26.75;;;;;;;4.26;83.32;97792.59;5038738;28;20619;-63
2022/02/07 02:46:57;;;;;;;43.90;25.52;;;;;;;4.38;77.90;97615.75;5019741;28;20165;-64
2022/02/07 02:49:31;;;;;;;36.70;22.45;;;;;;;4.59;75.53;97665.41;5036605;28;20033;-64
2022/02/07 02:51:56;;;;;;;37.28;23.88;;;;;;;4.42;77.79;97633.38;5025230;28;20025;-65
2022/02/07 02:54:22;;;;;;;38.72;24.75;;;;;;;4.36;77.53;97638.22;5017113;28;20047;-65
2022/02/07 02:56:47;;;;;;;37.40;23.25;;;;;;;4.28;77.16;97615.72;5031405;28;20033;-64
2022/02/07 02:59:12;;;;;;;41.22;23.48;;;;;;;4.25;77.82;97600.50;5035906;28;20171;-65
2022/02/07 03:01:38;;;;;;;40.45;26.23;;;;;;;4.32;79.98;97604.19;5039636;28;20025;-65
2022/02/07 03:04:03;;;;;;;40.72;24.92;;;;;;;4.28;78.10;97587.41;4982717;28;20399;-64
2022/02/07 03:06:29;;;;;;;39.17;23.52;;;;;;;4.29;77.50;97585.63;5036025;28;20123;-64
2022/02/07 03:08:54;;;;;;;35.70;20.48;;;;;;;4.43;78.26;97577.56;5036217;28;20044;-64
2022/02/07 03:11:23;;;;;;;43.13;25.65;;;;;;;4.43;79.64;97557.78;5041293;28;20036;-64
2022/02/07 03:13:55;;;;;;;41.22;25.88;;;;;;;4.48;79.56;97566.88;5038960;28;20044;-64
2022/02/07 03:16:38;;;;;;;38.70;24.35;;;;;;;4.23;79.16;97538.06;5020750;28;20586;-64
2022/02/07 03:19:09;;;;;;;40.00;25.77;;;;;;;4.47;80.21;97583.25;5030498;28;20041;-64
2022/02/07 03:21:35;;;;;;;39.00;24.42;;;;;;;4.35;80.40;97585.13;5036466;28;20484;-64
2022/02/07 03:24:01;;;;;;;33.53;19.92;;;;;;;4.46;75.85;97586.78;4998186;28;20090;-65
2022/02/07 03:26:28;;;;;;;33.22;19.95;;;;;;;4.53;75.66;97586.13;5034557;28;20527;-64
2022/02/07 03:28:53;;;;;;;34.33;20.98;;;;;;;4.63;75.20;97581.78;5032888;28;20075;-65
2022/02/07 03:31:19;;;;;;;36.78;21.90;;;;;;;4.35;74.74;97526.75;5019741;28;20061;-64
2022/02/07 03:33:45;;;;;;;35.92;20.80;;;;;;;4.57;75.86;97537.75;5039350;28;20064;-64
2022/02/07 03:36:12;;;;;;;37.38;22.40;;;;;;;4.50;75.33;97540.03;5023932;28;20060;-65
2022/02/07 03:38:38;;;;;;;38.35;22.73;;;;;;;4.58;77.92;97545.34;5016334;28;20035;-64
2022/02/07 03:41:04;;;;;;;31.13;19.90;;;;;;;4.45;76.27;97513.06;5022031;28;20060;-63
2022/02/07 03:43:30;;;;;;;37.17;21.38;;;;;;;4.54;76.10;97523.38;4993787;28;20484;-65
2022/02/07 03:45:55;;;;;;;34.63;19.73;;;;;;;4.67;73.03;97542.91;5018753;28;20380;-64
2022/02/07 03:48:21;;;;;;;31.33;18.52;;;;;;;4.68;73.69;97536.84;5021387;28;20120;-65
2022/02/07 03:50:46;;;;;;;31.52;20.50;;;;;;;4.62;77.90;97540.75;5026834;28;20067;-64
2022/02/07 03:53:12;;;;;;;36.33;22.33;;;;;;;4.45;78.21;97533.66;5037200;28;20045;-65
2022/02/07 03:55:39;;;;;;;36.70;21.15;;;;;;;4.48;77.08;97523.13;5037424;28;20055;-64
2022/02/07 03:58:04;;;;;;;34.60;21.88;;;;;;;4.14;77.09;97474.53;5029191;28;20053;-64
2022/02/07 04:00:31;;;;;;;29.67;18.90;;;;;;;4.47;76.74;97521.47;5033852;28;20108;-64
2022/02/07 04:02:59;;;;;;;31.83;21.13;;;;;;;4.13;76.49;97462.66;5023007;28;20656;-64
2022/02/07 04:08:10;;;;;;;32.47;20.02;;;;;;;4.13;73.65;97417.13;5039188;28;20562;-64
2022/02/07 04:10:50;;;;;;;32.72;19.67;;;;;;;4.51;74.39;97486.78;5040598;28;20021;-65
2022/02/07 04:13:17;;;;;;;30.60;17.70;;;;;;;4.54;74.61;97494.25;5022144;28;20111;-64
2022/02/07 04:15:42;;;;;;;31.08;20.10;;;;;;;4.63;73.75;97498.59;5040036;28;20133;-65
2022/02/07 04:18:12;;;;;;;34.55;21.17;;;;;;;4.61;75.69;97490.19;5032136;28;20104;-64
2022/02/07 04:20:38;;;;;;;34.95;21.40;;;;;;;4.35;76.47;97461.59;5018076;28;20033;-63
2022/02/07 04:23:04;;;;;;;34.17;19.42;;;;;;;4.37;77.11;97473.38;5033529;28;20039;-65
2022/02/07 04:25:29;;;;;;;35.05;21.23;;;;;;;4.58;76.64;97499.00;4991100;28;20029;-64
2022/02/07 04:27:55;;;;;;;30.30;17.17;;;;;;;4.45;75.44;97474.47;5018132;28;20075;-63
2022/02/07 04:30:21;;;;;;;27.23;16.30;;;;;;;4.84;73.06;97501.06;5046068;28;20588;-64
2022/02/07 04:32:46;;;;;;;28.90;17.02;;;;;;;4.90;73.68;97517.72;5042851;28;20036;-65
2022/02/07 04:35:11;;;;;;;35.95;22.05;;;;;;;4.80;76.09;97513.41;5038578;28;20026;-64
2022/02/07 04:37:37;;;;;;;31.63;21.17;;;;;;;4.49;77.30;97476.66;5046096;28;20100;-64
2022/02/07 04:40:03;;;;;;;34.65;21.45;;;;;;;4.74;75.84;97519.06;5043423;28;20443;-65
2022/02/07 04:42:28;;;;;;;31.45;19.73;;;;;;;4.73;76.51;97529.53;5023321;28;20048;-64
2022/02/07 04:50:36;;;;;;;25.63;15.77;;;;;;;5.44;69.90;97561.91;5038266;28;20036;-64
2022/02/07 04:56:11;;;;;;;29.45;16.75;;;;;;;5.26;70.03;97572.94;5043006;28;20104;-64
2022/02/07 04:58:44;;;;;;;21.33;11.93;;;;;;;5.49;68.31;97554.56;5039739;28;20044;-65
2022/02/07 05:01:28;;;;;;;21.60;11.63;;;;;;;5.71;66.88;97566.34;5033142;28;20484;-64
2022/02/07 05:04:03;;;;;;;19.85;11.50;;;;;;;5.87;65.82;97566.56;5037923;28;20040;-64
2022/02/07 05:14:45;;;;;;;18.80;9.10;;;;;;;5.88;65.58;97570.78;5036809;28;20288;-64
2022/02/07 05:17:12;;;;;;;17.27;8.82;;;;;;;6.17;65.72;97652.50;5037448;28;20036;-65
2022/02/07 05:19:38;;;;;;;20.27;10.23;;;;;;;6.08;67.49;97635.28;5037854;28;20196;-64
2022/02/07 05:22:03;;;;;;;22.15;9.10;;;;;;;6.11;71.18;97640.13;5036619;28;20120;-64
2022/02/07 05:24:29;;;;;;;17.90;8.70;;;;;;;5.96;71.87;97644.94;5038757;28;20083;-64
2022/02/07 05:26:54;;;;;;;17.75;9.43;;;;;;;5.96;72.84;97653.47;5040885;28;20033;-63
2022/02/07 05:29:20;;;;;;;20.42;10.75;;;;;;;5.85;73.45;97661.34;4976837;28;20043;-63
2022/02/07 05:31:45;;;;;;;20.35;9.73;;;;;;;5.79;76.63;97659.34;5036053;28;20443;-63
2022/02/07 05:34:10;;;;;;;14.10;7.45;;;;;;;5.87;75.72;97667.19;5037867;28;20017;-64
2022/02/07 05:36:41;;;;;;;16.10;8.60;;;;;;;5.61;76.85;97610.22;5038715;28;20036;-62
2022/02/07 05:39:07;;;;;;;14.55;8.38;;;;;;;5.90;77.25;97682.41;5035986;28;20752;-62
2022/02/07 05:41:33;;;;;;;17.42;8.65;;;;;;;5.59;76.60;97604.38;5039714;28;20036;-62
2022/02/07 05:43:58;;;;;;;11.48;6.00;;;;;;;6.05;75.73;97672.47;5013100;28;20033;-61
2022/02/07 05:46:24;;;;;;;18.25;7.57;;;;;;;6.03;75.17;97692.47;5038993;28;20043;-61
2022/02/07 05:48:50;;;;;;;13.88;6.95;;;;;;;6.12;75.55;97701.16;4984647;28;20040;-62
2022/02/07 05:51:16;;;;;;;10.73;5.93;;;;;;;6.22;73.73;97676.09;5042855;28;20032;-62
2022/02/07 05:53:41;;;;;;;12.20;6.47;;;;;;;6.45;72.64;97750.69;5041102;28;20032;-64
2022/02/07 05:56:06;;;;;;;12.85;6.90;;;;;;;6.26;72.55;97717.94;5034340;28;20373;-61
2022/02/07 05:58:32;;;;;;;13.25;7.90;;;;;;;6.33;72.54;97729.34;5042293;28;20036;-61
2022/02/07 06:00:58;;;;;;;15.90;7.93;;;;;;;6.28;72.76;97731.53;5021233;28;20049;-62
2022/02/07 06:03:24;;;;;;;11.75;6.60;;;;;;;6.33;73.37;97740.50;5022950;28;20083;-60
2022/02/07 06:05:49;;;;;;;12.13;7.28;;;;;;;6.13;72.95;97708.75;5036751;28;20025;-62
2022/02/07 06:08:16;;;;;;;12.52;7.20;;;;;;;6.39;74.54;97739.13;5041041;28;20032;-62
2022/02/07 06:10:43;;;;;;;13.68;7.03;;;;;;;6.45;73.37;97768.75;4966445;28;20028;-63
2022/02/07 06:13:19;;;;;;;11.02;6.05;;;;;;;6.63;71.97;97756.75;5040684;28;20029;-63
2022/02/07 06:15:45;;;;;;;9.23;4.88;;;;;;;6.66;71.38;97717.72;5049613;28;20724;-61
2022/02/07 06:18:14;;;;;;;8.75;4.15;;;;;;;7.12;70.74;97753.97;5032345;28;20072;-63
2022/02/07 06:20:39;;;;;;;9.90;4.25;;;;;;;7.27;69.30;97760.28;5029917;28;21025;-61
2022/02/07 06:23:04;;;;;;;7.85;3.40;;;;;;;7.23;69.37;97747.81;5039737;28;20621;-61
2022/02/07 06:25:30;;;;;;;8.52;3.90;;;;;;;7.27;69.04;97756.88;5001020;28;20060;-64
2022/02/07 06:27:55;;;;;;;7.32;3.67;;;;;;;7.16;66.97;97716.53;5004088;28;20033;-62
2022/02/07 06:30:21;;;;;;;6.45;2.90;;;;;;;7.66;66.19;97769.56;5023227;28;20229;-63
2022/02/07 06:32:46;;;;;;;5.00;2.05;;;;;;;7.74;65.98;97766.25;4991444;28;20056;-64
2022/02/07 06:35:13;;;;;;;5.68;2.22;;;;;;;7.69;66.12;97757.16;5035529;28;20665;-61
2022/02/07 06:37:39;;;;;;;5.68;2.22;;;;;;;7.70;65.94;97784.66;5022600;28;20021;-61
2022/02/07 06:40:06;;;;;;;4.25;2.00;;;;;;;7.74;66.20;97792.97;5023825;28;20075;-64
2022/02/07 06:42:31;;;;;;;3.45;1.27;;;;;;;7.82;64.76;97789.63;5009439;28;20029;-63
2022/02/07 06:44:56;;;;;;;3.63;1.00;;;;;;;7.91;64.34;97795.69;5029538;28;20075;-62
2022/02/07 06:47:22;;;;;;;2.80;0.95;;;;;;;7.88;60.88;97758.81;5027357;28;20116;-61
2022/02/07 06:49:47;;;;;;;0.73;0.20;;;;;;;8.30;57.18;97796.19;5015115;28;20024;-62
2022/02/07 06:52:13;;;;;;;1.38;0.38;;;;;;;8.54;53.49;97820.69;4993555;28;20033;-61
2022/02/07 06:54:38;;;;;;;0.95;0.25;;;;;;;8.84;49.99;97817.66;5028752;28;20106;-61
2022/02/07 06:57:04;;;;;;;5.05;0.50;;;;;;;8.87;50.78;97821.72;5029719;28;20033;-64
2022/02/07 06:59:34;;;;;;;1.10;0.30;;;;;;;8.85;49.91;97850.41;5029234;28;20033;-64
2022/02/07 07:01:59;;;;;;;0.88;0.20;;;;;;;8.93;46.21;97820.28;5031290;28;20047;-62
2022/02/07 07:04:28;;;;;;;0.70;0.20;;;;;;;9.15;46.78;97863.84;5026441;28;20424;-61
2022/02/07 07:06:53;;;;;;;0.10;0.05;;;;;;;9.07;47.24;97888.91;5029680;28;20044;-61
2022/02/07 07:09:18;;;;;;;0.52;0.20;;;;;;;8.96;45.08;97856.28;5034392;28;20028;-62
2022/02/07 07:11:44;;;;;;;0.80;0.28;;;;;;;9.02;48.15;97902.34;4986398;28;20936;-63
2022/02/07 07:14:29;;;;;;;0.40;0.20;;;;;;;8.90;46.62;97899.19;5021906;28;20064;-61
2022/02/07 07:16:55;;;;;;;1.38;0.20;;;;;;;8.87;47.33;97912.47;5033887;28;20025;-63
2022/02/07 07:19:20;;;;;;;1.08;0.15;;;;;;;8.90;47.08;97938.06;5035705;28;20025;-62
2022/02/07 07:21:47;;;;;;;0.25;0.20;;;;;;;8.86;47.50;97931.56;5037598;28;20151;-62
2022/02/07 07:24:13;;;;;;;0.32;0.10;;;;;;;8.85;48.27;97954.09;5040956;28;20175;-64
2022/02/07 07:26:39;;;;;;;0.45;0.13;;;;;;;8.95;45.57;97961.78;5040837;28;20025;-64
2022/02/07 07:29:10;;;;;;;0.38;0.10;;;;;;;9.14;44.28;97963.34;5039522;28;20412;-62
2022/02/07 07:31:44;;;;;;;0.45;0.20;;;;;;;9.28;41.68;97949.03;5003019;28;20029;-64
2022/02/07 07:34:15;;;;;;;0.00;0.00;;;;;;;9.44;39.47;97987.25;5023213;28;20036;-61
2022/02/07 07:36:41;;;;;;;0.25;0.10;;;;;;;9.45;39.59;97985.47;5017154;28;20457;-61
2022/02/07 07:39:06;;;;;;;0.28;0.10;;;;;;;9.54;36.93;97971.56;5031417;28;20025;-61
2022/02/07 07:41:33;;;;;;;0.47;0.10;;;;;;;9.56;38.41;97993.00;5037749;28;20040;-62
2022/02/07 07:43:58;;;;;;;0.30;0.20;;;;;;;9.31;39.62;97998.03;5021444;28;20578;-61
2022/02/07 07:46:28;;;;;;;1.52;0.20;;;;;;;9.29;34.18;97991.34;5029497;28;20037;-60
2022/02/07 07:49:00;;;;;;;0.35;0.10;;;;;;;9.65;33.81;98056.16;5034826;28;20065;-62
2022/02/07 07:51:35;;;;;;;0.50;0.20;;;;;;;9.78;31.88;98017.59;5005114;28;20032;-63
2022/02/07 07:54:23;;;;;;;1.58;0.20;;;;;;;9.94;30.55;98035.06;5005508;28;20037;-60
2022/02/07 08:02:19;;;;;;;0.38;0.10;;;;;;;9.75;30.38;98065.47;5044910;28;20414;-61
2022/02/07 08:04:47;;;;;;;0.20;0.10;;;;;;;9.84;27.79;98081.09;5028811;28;20041;-61
2022/02/07 08:07:22;;;;;;;0.60;0.17;;;;;;;10.03;25.93;98087.88;5044076;28;20033;-61
2022/02/07 08:12:35;;;;;;;1.08;0.30;;;;;;;9.71;26.51;98123.03;4973259;28;20060;-61
2022/02/07 08:15:01;;;;;;;0.25;0.20;;;;;;;9.73;26.56;98129.72;5043264;28;20032;-62
2022/02/07 08:17:27;;;;;;;1.50;0.25;;;;;;;9.77;25.51;98154.41;5043689;28;20593;-62
2022/02/07 08:19:53;;;;;;;0.57;0.10;;;;;;;9.66;25.24;98146.06;5025681;28;20037;-60
2022/02/07 08:22:19;;;;;;;1.80;0.28;;;;;;;9.60;24.86;98205.38;5027991;28;20036;-61
2022/02/07 08:24:45;;;;;;;1.35;0.10;;;;;;;9.47;29.22;98199.72;5045223;28;20028;-62
2022/02/07 08:27:11;;;;;;;3.80;0.30;;;;;;;9.40;25.80;98206.47;5023609;28;20041;-61
2022/02/07 08:29:36;;;;;;;0.85;0.17;;;;;;;9.34;25.87;98262.34;5038769;28;20036;-61
2022/02/07 08:32:02;;;;;;;0.15;0.10;;;;;;;9.39;26.15;98194.47;4986642;28;20063;-61
2022/02/07 08:34:27;;;;;;;0.73;0.22;;;;;;;9.28;26.16;98215.44;5024062;28;20039;-62
2022/02/07 08:36:53;;;;;;;0.13;0.10;;;;;;;9.22;26.33;98225.44;5024356;28;20033;-63
2022/02/07 08:39:19;;;;;;;0.00;0.00;;;;;;;9.06;27.10;98232.22;5026107;28;20112;-61
2022/02/07 08:41:45;;;;;;;0.98;0.30;;;;;;;8.99;25.34;98253.53;5042350;28;20031;-61
2022/02/07 08:44:10;;;;;;;0.68;0.28;;;;;;;9.19;24.45;98281.97;5036250;28;20126;-61
2022/02/07 08:46:35;;;;;;;0.10;0.10;;;;;;;8.94;23.65;98278.25;5040638;28;21879;-62
2022/02/07 08:49:03;;;;;;;1.63;0.63;;;;;;;9.17;22.20;98286.50;5023690;28;20116;-61
2022/02/07 08:51:31;;;;;;;0.75;0.20;;;;;;;9.22;21.24;98272.13;4995791;28;20476;-63
2022/02/07 08:53:56;;;;;;;1.75;0.75;;;;;;;9.09;23.73;98309.72;5020685;28;20048;-61
2022/02/07 08:56:36;;;;;;;3.97;0.68;;;;;;;8.93;22.79;98303.38;5046626;28;20021;-62
2022/02/07 08:59:02;;;;;;;;;;;;;;;8.92;23.54;98314.69;5042082;28;20053;-63
2022/02/07 09:01:40;;;;;;;0.45;0.20;;;;;;;9.03;21.74;98331.84;5025614;28;20001;-62
2022/02/07 09:07:25;;;;;;;0.55;0.20;;;;;;;8.76;24.33;98351.59;5042841;28;20087;-61
2022/02/07 09:09:43;;;;;;;1.23;0.32;;;;;;;8.68;25.91;98368.78;5043877;28;20067;-62
2022/02/07 09:12:09;;;;;;;2.20;0.30;;;;;;;8.78;22.51;98360.06;4994979;28;20072;-60
2022/02/07 09:14:42;;;;;;;0.20;0.15;;;;;;;8.79;22.46;98397.97;5042651;28;20100;-64
2022/02/07 09:17:08;;;;;;;2.00;0.35;;;;;;;8.59;25.24;98399.75;5043436;28;20028;-62
2022/02/07 09:19:33;;;;;;;0.32;0.10;;;;;;;8.56;24.36;98425.13;5023676;28;20024;-61
2022/02/07 09:21:59;;;;;;;0.47;0.20;;;;;;;8.42;24.16;98403.03;5042005;28;20041;-60
2022/02/07 09:24:24;;;;;;;3.90;0.30;;;;;;;8.43;25.05;98415.88;5045647;28;20021;-62
2022/02/07 09:26:50;;;;;;;1.08;0.30;;;;;;;8.37;26.27;98441.47;5040832;28;20045;-61
2022/02/07 09:29:15;;;;;;;0.90;0.20;;;;;;;8.28;27.15;98424.94;5045219;28;20025;-62
2022/02/07 09:31:40;;;;;;;1.02;0.30;;;;;;;8.33;24.01;98443.50;4999734;28;20526;-60
2022/02/07 09:34:06;;;;;;;0.50;0.20;;;;;;;8.22;24.57;98423.72;5041491;28;20479;-62
2022/02/07 09:36:31;;;;;;;0.40;0.20;;;;;;;8.24;25.29;98502.09;5039955;28;20052;-61
2022/02/07 09:38:57;;;;;;;0.93;0.22;;;;;;;7.94;27.08;98440.84;5042918;28;20843;-62
2022/02/07 09:41:24;;;;;;;1.92;0.20;;;;;;;8.09;25.90;98462.00;5038775;28;20368;-61
2022/02/07 09:43:50;;;;;;;1.80;0.20;;;;;;;8.20;25.33;98500.75;5039539;28;20030;-62
2022/02/07 09:46:23;;;;;;;1.52;0.30;;;;;;;8.11;28.04;98514.47;5036110;28;20040;-63
2022/02/07 09:48:51;;;;;;;6.97;0.60;;;;;;;8.13;26.53;98504.00;4959401;28;20033;-61
2022/02/07 09:51:18;;;;;;;0.77;0.10;;;;;;;8.20;23.73;98538.78;5021550;28;20029;-62
2022/02/07 09:53:43;;;;;;;0.80;0.20;;;;;;;8.22;24.16;98504.00;5042231;28;20025;-62
2022/02/07 09:56:11;;;;;;;1.17;0.20;;;;;;;8.21;24.88;98514.50;5043082;28;20529;-61
2022/02/07 09:58:38;;;;;;;3.38;0.40;;;;;;;8.16;26.85;98527.00;5039518;28;20032;-62
2022/02/07 10:01:11;;;;;;;0.55;0.17;;;;;;;8.13;26.75;98525.53;5033695;28;20477;-62
2022/02/07 10:04:05;;;;;;;0.52;0.20;;;;;;;8.24;25.42;98545.31;5035387;28;20039;-63
2022/02/07 10:06:41;;;;;;;0.40;0.20;;;;;;;8.15;24.11;98551.28;5006304;28;20036;-62
2022/02/07 10:12:09;;;;;;;4.68;0.20;;;;;;;8.01;26.83;98568.84;5034710;28;20033;-62
2022/02/07 10:37:39;;;;;;;0.63;0.10;;;;;;;8.45;27.56;98675.66;5039268;28;20112;-62
2022/02/07 10:44:47;;;;;;;0.20;0.15;;;;;;;8.73;22.91;98683.69;4994550;28;20602;-64
2022/02/07 10:47:30;;;;;;;0.90;0.22;;;;;;;8.73;24.72;98686.28;5039469;28;20071;-64
2022/02/07 10:50:04;;;;;;;1.85;0.40;;;;;;;8.64;22.57;98666.34;5020162;28;20040;-62
2022/02/07 10:53:02;;;;;;;0.65;0.20;;;;;;;8.64;27.73;98676.69;5022887;28;20045;-62
2022/02/07 10:55:28;;;;;;;0.52;0.20;;;;;;;8.17;28.78;98627.09;5036909;28;20087;-62
2022/02/07 10:57:58;;;;;;;1.25;0.30;;;;;;;8.66;23.31;98667.81;5031351;28;20460;-61
2022/02/07 11:00:29;;;;;;;0.73;0.20;;;;;;;8.70;24.94;98659.81;5022435;28;20059;-63
2022/02/07 11:03:05;;;;;;;1.15;0.20;;;;;;;8.70;27.00;98675.34;5028644;28;20361;-63
2022/02/07 11:05:51;;;;;;;2.83;0.40;;;;;;;8.59;27.57;98669.28;5033342;28;20059;-62
2022/02/07 11:08:36;;;;;;;1.20;0.40;;;;;;;8.81;22.29;98740.06;5020943;28;20111;-62
2022/02/07 11:16:30;;;;;;;2.20;0.50;;;;;;;8.82;22.25;98731.34;5029978;28;20067;-64
2022/02/07 11:27:51;;;;;;;0.75;0.20;;;;;;;8.71;27.94;98701.16;4998436;28;19920;-62
2022/02/07 11:30:38;;;;;;;0.20;0.10;;;;;;;8.84;25.28;98711.28;5028968;28;21020;-64
2022/02/07 11:33:06;;;;;;;1.20;0.22;;;;;;;8.89;21.79;98695.31;5023673;28;20044;-64
2022/02/07 11:35:49;;;;;;;0.93;0.30;;;;;;;8.82;20.96;98687.28;5020886;28;20156;-64
2022/02/07 11:38:18;;;;;;;1.90;0.32;;;;;;;8.86;23.65;98683.47;5040670;28;20032;-64
2022/02/07 11:40:56;;;;;;;0.43;0.10;;;;;;;8.91;23.48;98709.81;4980686;28;20137;-62
2022/02/07 11:43:26;;;;;;;1.65;0.30;;;;;;;8.91;25.74;98704.63;5031290;28;20033;-63
2022/02/07 11:45:59;;;;;;;0.68;0.22;;;;;;;9.10;19.50;98703.84;5033228;28;20124;-62
2022/02/07 11:48:28;;;;;;;1.05;0.30;;;;;;;8.73;25.54;98654.34;5026205;28;20040;-64
2022/02/07 11:50:55;;;;;;;1.42;0.25;;;;;;;9.08;20.93;98710.13;5026152;28;20087;-62
2022/02/07 11:53:26;;;;;;;1.30;0.30;;;;;;;9.17;21.15;98756.03;5027766;28;20029;-63
2022/02/07 11:56:05;;;;;;;1.00;0.20;;;;;;;9.01;21.71;98713.25;5019823;28;20029;-62
2022/02/07 11:58:44;;;;;;;1.50;0.57;;;;;;;9.16;19.32;98705.94;5025558;28;20020;-61
2022/02/07 12:01:12;;;;;;;1.02;0.15;;;;;;;9.19;18.18;98671.09;5026919;28;20135;-61
2022/02/07 12:03:41;;;;;;;1.75;0.30;;;;;;;9.26;20.68;98656.66;5013150;28;20025;-63
2022/02/07 12:06:07;;;;;;;0.95;0.20;;;;;;;9.07;21.71;98677.34;4950233;28;20055;-62
2022/02/07 12:08:37;;;;;;;0.75;0.22;;;;;;;9.21;21.51;98664.00;5011616;28;20029;-63
2022/02/07 12:11:02;;;;;;;1.15;0.30;;;;;;;9.27;20.43;98645.28;5037892;28;20063;-61
2022/02/07 12:13:32;;;;;;;0.30;0.10;;;;;;;9.12;23.97;98654.44;5031843;28;20108;-62
2022/02/07 12:16:04;;;;;;;0.55;0.10;;;;;;;9.09;24.37;98660.72;5040220;28;20484;-63
2022/02/07 12:18:30;;;;;;;1.45;0.20;;;;;;;9.10;20.78;98612.25;5029475;28;20021;-63
2022/02/07 12:21:13;;;;;;;1.63;0.40;;;;;;;8.97;26.09;98669.56;5040781;28;20029;-63
2022/02/07 12:23:38;;;;;;;1.25;0.17;;;;;;;9.28;21.59;98617.59;5015683;28;20025;-63
2022/02/07 12:26:09;;;;;;;0.47;0.20;;;;;;;9.09;21.26;98608.00;5031409;28;20057;-62
2022/02/07 12:28:46;;;;;;;2.63;0.40;;;;;;;9.07;21.87;98610.72;5036709;28;20031;-62
2022/02/07 12:31:21;;;;;;;2.85;0.38;;;;;;;9.26;19.86;98635.88;5039165;28;20507;-62
2022/02/07 12:34:07;;;;;;;2.30;0.25;;;;;;;9.28;19.41;98608.03;5035479;28;20021;-64
2022/02/07 12:36:34;;;;;;;4.47;0.32;;;;;;;9.50;17.00;98651.06;5012749;28;20184;-62
2022/02/07 12:39:03;;;;;;;1.05;0.20;;;;;;;9.34;22.32;98636.00;4969357;28;20022;-60
2022/02/07 12:41:30;;;;;;;0.63;0.20;;;;;;;9.49;18.93;98641.63;5041198;28;20036;-61
2022/02/07 12:43:57;;;;;;;1.30;0.32;;;;;;;9.49;18.59;98613.09;5032473;28;20025;-61
2022/02/07 12:46:25;;;;;;;0.65;0.10;;;;;;;9.45;18.55;98639.44;5038051;28;20325;-62
2022/02/07 12:48:58;;;;;;;0.30;0.10;;;;;;;9.43;21.43;98655.16;5033771;28;20036;-62
2022/02/07 12:51:29;;;;;;;2.05;0.32;;;;;;;9.26;21.74;98643.66;5036968;28;20028;-61
2022/02/07 12:53:55;;;;;;;0.82;0.20;;;;;;;9.39;20.60;98658.97;5042094;28;20033;-61
2022/02/07 12:56:22;;;;;;;1.08;0.20;;;;;;;9.37;18.43;98642.72;5043458;28;20036;-60
2022/02/07 12:58:49;;;;;;;1.92;0.38;;;;;;;9.27;19.87;98600.38;4991167;28;20040;-61
2022/02/07 13:01:35;;;;;;;4.00;0.55;;;;;;;9.37;22.63;98676.47;5036078;28;20025;-60
2022/02/07 13:04:07;;;;;;;1.23;0.30;;;;;;;9.75;16.39;98644.47;5026942;28;20033;-61
2022/02/07 13:06:34;;;;;;;0.10;0.10;;;;;;;9.50;19.51;98627.69;5044118;28;20171;-62
2022/02/07 13:09:03;;;;;;;0.70;0.22;;;;;;;9.70;17.44;98671.81;5043162;28;20578;-60
2022/02/07 13:11:33;;;;;;;0.30;0.10;;;;;;;9.59;17.95;98668.41;5024518;28;20469;-60
2022/02/07 13:13:59;;;;;;;1.52;0.20;;;;;;;9.67;19.92;98685.88;5019078;28;20095;-61
2022/02/07 13:16:33;;;;;;;1.05;0.20;;;;;;;9.66;17.26;98658.28;5044522;28;20036;-61
2022/02/07 13:19:33;;;;;;;7.63;0.70;;;;;;;9.94;15.32;98698.16;4982858;28;20041;-60
2022/02/07 13:21:59;;;;;;;1.15;0.30;;;;;;;9.56;20.06;98673.03;5034802;28;20532;-61
2022/02/07 13:24:31;;;;;;;0.70;0.20;;;;;;;9.83;15.06;98690.53;5024111;28;20128;-61
2022/02/07 13:26:58;;;;;;;0.10;0.00;;;;;;;9.85;17.52;98700.78;5039852;28;20025;-62
2022/02/07 13:29:25;;;;;;;0.65;0.20;;;;;;;9.52;18.92;98674.28;5034157;28;20108;-61
2022/02/07 13:31:52;;;;;;;3.58;0.35;;;;;;;9.77;15.84;98685.91;5044139;28;20387;-61
2022/02/07 13:34:23;;;;;;;0.47;0.10;;;;;;;9.69;16.63;98662.38;5024875;28;20029;-60
2022/02/07 13:36:51;;;;;;;2.72;0.35;;;;;;;9.90;16.97;98735.78;5043901;28;20017;-61
2022/02/07 13:39:19;;;;;;;1.30;0.20;;;;;;;9.76;20.38;98716.22;4990194;28;20041;-62
2022/02/07 13:42:06;;;;;;;0.80;0.20;;;;;;;9.68;19.87;98729.06;5024089;28;20028;-60
2022/02/07 13:44:40;;;;;;;0.47;0.10;;;;;;;9.85;16.35;98724.16;5033238;28;20033;-61
2022/02/07 13:47:06;;;;;;;2.72;0.50;;;;;;;9.56;16.87;98673.84;5045397;28;20511;-60
2022/02/07 13:49:31;;;;;;;0.57;0.17;;;;;;;9.74;18.67;98686.16;5042612;28;20036;-61
2022/02/07 13:51:57;;;;;;;1.10;0.20;;;;;;;9.88;17.72;98698.72;5042210;28;20044;-61
2022/02/07 13:54:32;;;;;;;1.30;0.30;;;;;;;9.97;15.64;98739.47;5041465;28;20029;-59
2022/02/07 13:57:00;;;;;;;1.02;0.22;;;;;;;10.02;16.03;98741.66;5037367;28;20030;-61
2022/02/07 13:59:34;;;;;;;2.53;0.30;;;;;;;9.69;15.86;98706.50;5001742;28;20033;-61
2022/02/07 14:02:00;;;;;;;2.83;0.20;;;;;;;10.10;14.38;98730.56;5041889;28;20052;-60
2022/02/07 14:04:27;;;;;;;0.80;0.20;;;;;;;10.10;14.28;98766.94;5042986;28;20097;-59
2022/02/07 14:07:09;;;;;;;6.75;0.50;;;;;;;9.90;14.50;98709.81;5043013;28;20048;-60
2022/02/07 14:09:38;;;;;;;2.60;0.40;;;;;;;10.04;15.44;98755.31;5026322;28;20039;-59
2022/02/07 14:12:04;;;;;;;0.93;0.30;;;;;;;9.87;19.09;98779.38;5022442;28;20037;-60
2022/02/07 14:14:29;;;;;;;0.98;0.20;;;;;;;9.74;21.05;98784.84;5024189;28;20483;-59
2022/02/07 14:16:55;;;;;;;1.08;0.20;;;;;;;9.73;19.70;98796.16;5043634;28;20160;-61